Poncha Springs, CO (81242)

11:01 AM MST on February 09, 2016 (GMT -0700)
Adobe Park | | Change Station
CLOSE
Current Station
Personal Weather Station
Location: Salida, CO
Elevation: 7267 ft
Nearby Weather Stations

Elev 7267 ft 38.56 °N, 106.07 °W | Updated 0 second ago

Clear
Clear
39.2 °F
Feels Like 39 °F
N
2.5
Wind Variable Wind from East
Gusts 2.5 mph

Today
High -- | Low -- °F
--% Chance of Precip.
Yesterday
High -- | Low -- °F
Precip. -- in
Pressure 30.40 in
Visibility 10.0 miles
Clouds Clear
Windchill 39 °F
Dew Point 18 °F
Humidity 43%
Rainfall 0.00 in
Snow Depth Not available.
7:02 AM 5:35 PM
New Moon, 2% visible
METAR KAEJ 091755Z AUTO 34021G27KT 10SM CLR 07/M13 A3040 RMK AO2 T00721130 10072 21030
Pressure 30.40 in
Visibility 10.0 miles
Clouds Clear
Windchill 39 °F
Dew Point 18 °F
Humidity 43%
Rainfall 0.00 in
Snow Depth Not available.
7:02 AM 5:35 PM
New Moon, 2% visible
METAR KAEJ 091755Z AUTO 34021G27KT 10SM CLR 07/M13 A3040 RMK AO2 T00721130 10072 21030

10-Day Weather Forecast

Almanac

Astronomy

Feb. 09, 2016 Rise Set
Actual Time
Civil Twilight
Nautical Twilight
Astronomical Twilight
Moon
Length of Visible Light
Length of Day
Tomorrow will be .
, % of the Moon is Illuminated

Today's Extremes

State Highs State Lows

Community

WunderPhotos

Upload Photos

1,891,650 photos uploaded!

WunderBlog® & News

Nearby

Air Quality

  Air Quality AQ Index Pollutant
Not available.

Snow Depth

Station Depth Elevation

Earthquake Activity

City Distance Mag. Time & Date
Minimum magnitude displayed is 2.5.

Coastal Water Temperatures

Place Temperature

Stations

Nearby Weather Stations

Station Location Temp. Windchill Dew Point Humidity Wind Precip. Elev Updated Type
                   

Watches & Warnings

There are currently no watches in effect.